sensor_id;sensor_type;location;lat;lon;timestamp;temperature;humidity
23597;DHT22;40226;50.874;4.394;2023-01-16T00:00:18;4.90;99.90
23597;DHT22;40226;50.874;4.394;2023-01-16T00:02:44;4.90;99.90
23597;DHT22;40226;50.874;4.394;2023-01-16T00:05:10;5.00;99.90
23597;DHT22;40226;50.874;4.394;2023-01-16T00:07:35;5.00;99.90
23597;DHT22;40226;50.874;4.394;2023-01-16T00:10:03;5.00;99.90
23597;DHT22;40226;50.874;4.394;2023-01-16T00:12:29;5.00;99.90
23597;DHT22;40226;50.874;4.394;2023-01-16T00:14:55;5.10;99.90
23597;DHT22;40226;50.874;4.394;2023-01-16T00:17:20;5.10;99.90
23597;DHT22;40226;50.874;4.394;2023-01-16T00:19:46;5.10;99.90
23597;DHT22;40226;50.874;4.394;2023-01-16T00:22:11;5.10;99.90
23597;DHT22;40226;50.874;4.394;2023-01-16T00:24:37;5.10;99.90
23597;DHT22;40226;50.874;4.394;2023-01-16T00:27:03;5.10;99.90
23597;DHT22;40226;50.874;4.394;2023-01-16T00:29:30;5.00;99.90
23597;DHT22;40226;50.874;4.394;2023-01-16T00:31:55;5.00;99.90
23597;DHT22;40226;50.874;4.394;2023-01-16T00:34:21;5.00;99.90
23597;DHT22;40226;50.874;4.394;2023-01-16T00:36:47;5.00;99.90
23597;DHT22;40226;50.874;4.394;2023-01-16T00:39:12;4.90;99.90
23597;DHT22;40226;50.874;4.394;2023-01-16T00:41:38;4.90;99.90
23597;DHT22;40226;50.874;4.394;2023-01-16T00:44:03;4.90;99.90
23597;DHT22;40226;50.874;4.394;2023-01-16T00:46:29;4.90;99.90
23597;DHT22;40226;50.874;4.394;2023-01-16T00:48:55;4.80;99.90
23597;DHT22;40226;50.874;4.394;2023-01-16T00:51:21;4.90;99.90
23597;DHT22;40226;50.874;4.394;2023-01-16T00:53:47;4.90;99.90
23597;DHT22;40226;50.874;4.394;2023-01-16T00:56:12;4.90;99.90
23597;DHT22;40226;50.874;4.394;2023-01-16T00:58:38;4.90;99.90
23597;DHT22;40226;50.874;4.394;2023-01-16T01:01:04;4.90;99.90
23597;DHT22;40226;50.874;4.394;2023-01-16T01:03:31;4.90;99.90
23597;DHT22;40226;50.874;4.394;2023-01-16T01:05:57;4.90;99.90
23597;DHT22;40226;50.874;4.394;2023-01-16T01:08:22;4.90;99.90
23597;DHT22;40226;50.874;4.394;2023-01-16T01:10:48;4.90;99.90
23597;DHT22;40226;50.874;4.394;2023-01-16T01:13:14;5.00;99.90
23597;DHT22;40226;50.874;4.394;2023-01-16T01:15:40;5.00;99.90
23597;DHT22;40226;50.874;4.394;2023-01-16T01:18:05;5.00;99.90
23597;DHT22;40226;50.874;4.394;2023-01-16T01:20:31;5.00;99.90
23597;DHT22;40226;50.874;4.394;2023-01-16T01:22:58;5.00;99.90
23597;DHT22;40226;50.874;4.394;2023-01-16T01:25:24;4.90;99.90
23597;DHT22;40226;50.874;4.394;2023-01-16T01:27:50;4.90;99.90
23597;DHT22;40226;50.874;4.394;2023-01-16T01:30:15;5.00;99.90
23597;DHT22;40226;50.874;4.394;2023-01-16T01:32:41;5.00;99.90
23597;DHT22;40226;50.874;4.394;2023-01-16T01:35:07;5.10;99.90
23597;DHT22;40226;50.874;4.394;2023-01-16T01:37:33;5.10;99.90
23597;DHT22;40226;50.874;4.394;2023-01-16T01:40:00;5.10;99.90
23597;DHT22;40226;50.874;4.394;2023-01-16T01:42:26;5.10;99.90
23597;DHT22;40226;50.874;4.394;2023-01-16T01:50:52;5.20;99.90
23597;DHT22;40226;50.874;4.394;2023-01-16T01:53:46;5.30;99.90
23597;DHT22;40226;50.874;4.394;2023-01-16T01:56:18;5.30;99.90
23597;DHT22;40226;50.874;4.394;2023-01-16T01:58:48;5.30;99.90
23597;DHT22;40226;50.874;4.394;2023-01-16T02:01:15;5.30;99.90
23597;DHT22;40226;50.874;4.394;2023-01-16T02:03:46;5.40;99.90
23597;DHT22;40226;50.874;4.394;2023-01-16T02:06:17;5.40;99.90
23597;DHT22;40226;50.874;4.394;2023-01-16T02:08:44;5.60;99.90
23597;DHT22;40226;50.874;4.394;2023-01-16T02:11:19;5.60;99.90
23597;DHT22;40226;50.874;4.394;2023-01-16T02:13:55;5.60;99.90
23597;DHT22;40226;50.874;4.394;2023-01-16T02:16:21;5.50;99.90
23597;DHT22;40226;50.874;4.394;2023-01-16T02:19:13;5.60;99.90
23597;DHT22;40226;50.874;4.394;2023-01-16T02:27:18;5.70;99.90
23597;DHT22;40226;50.874;4.394;2023-01-16T02:32:44;5.70;99.90
23597;DHT22;40226;50.874;4.394;2023-01-16T02:38:44;5.80;99.90
23597;DHT22;40226;50.874;4.394;2023-01-16T02:46:33;5.80;99.90
23597;DHT22;40226;50.874;4.394;2023-01-16T02:49:34;5.80;99.90
23597;DHT22;40226;50.874;4.394;2023-01-16T02:52:32;5.80;99.90
23597;DHT22;40226;50.874;4.394;2023-01-16T02:55:07;5.90;99.90
23597;DHT22;40226;50.874;4.394;2023-01-16T02:57:40;6.00;99.90
23597;DHT22;40226;50.874;4.394;2023-01-16T03:00:08;6.00;99.90
23597;DHT22;40226;50.874;4.394;2023-01-16T03:02:34;6.00;99.90
23597;DHT22;40226;50.874;4.394;2023-01-16T03:05:00;6.00;99.90
23597;DHT22;40226;50.874;4.394;2023-01-16T03:18:46;6.30;99.90
23597;DHT22;40226;50.874;4.394;2023-01-16T03:21:30;6.20;99.90
23597;DHT22;40226;50.874;4.394;2023-01-16T03:26:40;6.10;99.90
23597;DHT22;40226;50.874;4.394;2023-01-16T03:29:24;6.10;99.90
23597;DHT22;40226;50.874;4.394;2023-01-16T03:32:03;6.10;99.90
23597;DHT22;40226;50.874;4.394;2023-01-16T03:37:11;6.10;99.90
23597;DHT22;40226;50.874;4.394;2023-01-16T03:39:43;6.20;99.90
23597;DHT22;40226;50.874;4.394;2023-01-16T03:42:14;6.30;99.90
23597;DHT22;40226;50.874;4.394;2023-01-16T03:44:44;6.30;99.90
23597;DHT22;40226;50.874;4.394;2023-01-16T03:47:16;6.40;99.90
23597;DHT22;40226;50.874;4.394;2023-01-16T03:49:52;6.60;99.90
23597;DHT22;40226;50.874;4.394;2023-01-16T03:52:21;6.80;99.90
23597;DHT22;40226;50.874;4.394;2023-01-16T03:55:05;6.80;99.90
23597;DHT22;40226;50.874;4.394;2023-01-16T03:57:38;6.80;99.90
23597;DHT22;40226;50.874;4.394;2023-01-16T04:00:05;6.80;99.90
23597;DHT22;40226;50.874;4.394;2023-01-16T04:02:53;6.70;99.90
23597;DHT22;40226;50.874;4.394;2023-01-16T04:05:27;6.70;99.90
23597;DHT22;40226;50.874;4.394;2023-01-16T04:08:05;6.80;99.90
23597;DHT22;40226;50.874;4.394;2023-01-16T04:10:36;6.70;99.90
23597;DHT22;40226;50.874;4.394;2023-01-16T04:13:08;6.80;99.90
23597;DHT22;40226;50.874;4.394;2023-01-16T04:15:38;6.90;99.90
23597;DHT22;40226;50.874;4.394;2023-01-16T04:18:04;7.00;99.90
23597;DHT22;40226;50.874;4.394;2023-01-16T04:20:31;6.70;99.90
23597;DHT22;40226;50.874;4.394;2023-01-16T04:22:57;6.70;99.90
23597;DHT22;40226;50.874;4.394;2023-01-16T04:25:23;6.80;99.90
23597;DHT22;40226;50.874;4.394;2023-01-16T04:27:49;7.00;99.90
23597;DHT22;40226;50.874;4.394;2023-01-16T04:30:15;6.90;99.90
23597;DHT22;40226;50.874;4.394;2023-01-16T04:32:41;6.90;99.90
23597;DHT22;40226;50.874;4.394;2023-01-16T04:35:08;6.90;99.90
23597;DHT22;40226;50.874;4.394;2023-01-16T04:37:35;7.00;99.90
23597;DHT22;40226;50.874;4.394;2023-01-16T04:40:01;7.10;99.90
23597;DHT22;40226;50.874;4.394;2023-01-16T04:42:27;7.00;99.90
23597;DHT22;40226;50.874;4.394;2023-01-16T04:44:53;6.90;99.90
23597;DHT22;40226;50.874;4.394;2023-01-16T04:47:18;6.90;99.90
23597;DHT22;40226;50.874;4.394;2023-01-16T04:49:44;6.80;99.90
23597;DHT22;40226;50.874;4.394;2023-01-16T04:52:12;7.00;99.90
23597;DHT22;40226;50.874;4.394;2023-01-16T04:54:37;7.10;99.90
23597;DHT22;40226;50.874;4.394;2023-01-16T04:57:03;7.10;99.90
23597;DHT22;40226;50.874;4.394;2023-01-16T04:59:29;7.10;99.90
23597;DHT22;40226;50.874;4.394;2023-01-16T05:01:55;7.10;99.90
23597;DHT22;40226;50.874;4.394;2023-01-16T05:04:21;7.00;99.90
23597;DHT22;40226;50.874;4.394;2023-01-16T05:06:48;6.90;99.90
23597;DHT22;40226;50.874;4.394;2023-01-16T05:09:14;7.00;99.90
23597;DHT22;40226;50.874;4.394;2023-01-16T05:11:39;7.00;99.90
23597;DHT22;40226;50.874;4.394;2023-01-16T05:14:05;6.90;99.90
23597;DHT22;40226;50.874;4.394;2023-01-16T05:16:37;6.90;99.90
23597;DHT22;40226;50.874;4.394;2023-01-16T05:19:03;6.80;99.90
23597;DHT22;40226;50.874;4.394;2023-01-16T05:21:29;6.80;99.90
23597;DHT22;40226;50.874;4.394;2023-01-16T05:23:55;6.80;99.90
23597;DHT22;40226;50.874;4.394;2023-01-16T05:26:20;6.80;99.90
23597;DHT22;40226;50.874;4.394;2023-01-16T05:28:46;6.70;99.90
23597;DHT22;40226;50.874;4.394;2023-01-16T05:31:12;6.60;99.90
23597;DHT22;40226;50.874;4.394;2023-01-16T05:33:37;6.60;99.90
23597;DHT22;40226;50.874;4.394;2023-01-16T05:36:03;6.50;99.90
23597;DHT22;40226;50.874;4.394;2023-01-16T05:38:29;6.40;99.90
23597;DHT22;40226;50.874;4.394;2023-01-16T05:40:54;6.40;99.90
23597;DHT22;40226;50.874;4.394;2023-01-16T05:43:20;6.40;99.90
23597;DHT22;40226;50.874;4.394;2023-01-16T05:45:46;6.30;99.90
23597;DHT22;40226;50.874;4.394;2023-01-16T05:48:12;6.30;99.90
23597;DHT22;40226;50.874;4.394;2023-01-16T05:50:37;6.30;99.90
23597;DHT22;40226;50.874;4.394;2023-01-16T05:53:03;6.10;99.90
23597;DHT22;40226;50.874;4.394;2023-01-16T05:55:29;6.10;99.90
23597;DHT22;40226;50.874;4.394;2023-01-16T05:57:55;6.10;99.90
23597;DHT22;40226;50.874;4.394;2023-01-16T06:00:20;6.10;99.90
23597;DHT22;40226;50.874;4.394;2023-01-16T06:02:46;6.10;99.90
23597;DHT22;40226;50.874;4.394;2023-01-16T06:05:13;6.10;99.90
23597;DHT22;40226;50.874;4.394;2023-01-16T06:07:39;6.10;99.90
23597;DHT22;40226;50.874;4.394;2023-01-16T06:10:08;6.10;99.90
23597;DHT22;40226;50.874;4.394;2023-01-16T06:12:34;6.10;99.90
23597;DHT22;40226;50.874;4.394;2023-01-16T06:14:59;6.00;99.90
23597;DHT22;40226;50.874;4.394;2023-01-16T06:17:25;6.00;99.90
23597;DHT22;40226;50.874;4.394;2023-01-16T06:19:50;6.10;99.90
23597;DHT22;40226;50.874;4.394;2023-01-16T06:22:16;6.00;99.90
23597;DHT22;40226;50.874;4.394;2023-01-16T06:24:42;6.00;99.90
23597;DHT22;40226;50.874;4.394;2023-01-16T06:27:08;6.10;99.90
23597;DHT22;40226;50.874;4.394;2023-01-16T06:29:33;6.10;99.90
23597;DHT22;40226;50.874;4.394;2023-01-16T06:31:59;5.90;99.90
23597;DHT22;40226;50.874;4.394;2023-01-16T06:34:24;6.00;99.90
23597;DHT22;40226;50.874;4.394;2023-01-16T06:36:51;6.00;99.90
23597;DHT22;40226;50.874;4.394;2023-01-16T06:39:16;6.00;99.90
23597;DHT22;40226;50.874;4.394;2023-01-16T06:41:42;5.90;99.90
23597;DHT22;40226;50.874;4.394;2023-01-16T06:44:08;5.90;99.90
23597;DHT22;40226;50.874;4.394;2023-01-16T06:46:34;5.90;99.90
23597;DHT22;40226;50.874;4.394;2023-01-16T06:49:00;5.90;99.90
23597;DHT22;40226;50.874;4.394;2023-01-16T06:51:25;5.90;99.90
23597;DHT22;40226;50.874;4.394;2023-01-16T06:53:51;5.90;99.90
23597;DHT22;40226;50.874;4.394;2023-01-16T06:56:17;5.80;99.90
23597;DHT22;40226;50.874;4.394;2023-01-16T06:58:43;5.60;99.90
23597;DHT22;40226;50.874;4.394;2023-01-16T07:01:08;5.60;99.90
23597;DHT22;40226;50.874;4.394;2023-01-16T07:03:35;5.50;99.90
23597;DHT22;40226;50.874;4.394;2023-01-16T07:06:01;5.50;99.90
23597;DHT22;40226;50.874;4.394;2023-01-16T07:08:26;5.40;99.90
23597;DHT22;40226;50.874;4.394;2023-01-16T07:10:52;5.40;99.90
23597;DHT22;40226;50.874;4.394;2023-01-16T07:13:18;5.50;99.90
23597;DHT22;40226;50.874;4.394;2023-01-16T07:15:48;5.50;99.90
23597;DHT22;40226;50.874;4.394;2023-01-16T07:18:32;5.40;99.90
23597;DHT22;40226;50.874;4.394;2023-01-16T07:21:16;5.40;99.90
23597;DHT22;40226;50.874;4.394;2023-01-16T07:24:07;5.50;99.90
23597;DHT22;40226;50.874;4.394;2023-01-16T07:26:35;5.40;99.90
23597;DHT22;40226;50.874;4.394;2023-01-16T07:29:01;5.30;99.90
23597;DHT22;40226;50.874;4.394;2023-01-16T07:31:28;5.40;99.90
23597;DHT22;40226;50.874;4.394;2023-01-16T07:33:55;5.30;99.90
23597;DHT22;40226;50.874;4.394;2023-01-16T07:36:21;5.40;99.90
23597;DHT22;40226;50.874;4.394;2023-01-16T07:38:47;5.40;99.90
23597;DHT22;40226;50.874;4.394;2023-01-16T07:41:12;5.30;99.90
23597;DHT22;40226;50.874;4.394;2023-01-16T07:43:39;5.30;99.90
23597;DHT22;40226;50.874;4.394;2023-01-16T07:46:05;5.40;99.90
23597;DHT22;40226;50.874;4.394;2023-01-16T07:48:30;5.30;99.90
23597;DHT22;40226;50.874;4.394;2023-01-16T07:50:58;5.40;99.90
23597;DHT22;40226;50.874;4.394;2023-01-16T07:53:26;5.40;99.90
23597;DHT22;40226;50.874;4.394;2023-01-16T07:55:55;5.30;99.90
23597;DHT22;40226;50.874;4.394;2023-01-16T07:58:21;5.30;99.90
23597;DHT22;40226;50.874;4.394;2023-01-16T08:00:47;5.30;99.90
23597;DHT22;40226;50.874;4.394;2023-01-16T08:03:14;5.30;99.90
23597;DHT22;40226;50.874;4.394;2023-01-16T08:05:40;5.30;99.90
23597;DHT22;40226;50.874;4.394;2023-01-16T08:08:06;5.30;99.90
23597;DHT22;40226;50.874;4.394;2023-01-16T08:10:32;5.30;99.90
23597;DHT22;40226;50.874;4.394;2023-01-16T08:12:57;5.30;99.90
23597;DHT22;40226;50.874;4.394;2023-01-16T08:15:23;5.40;99.90
23597;DHT22;40226;50.874;4.394;2023-01-16T08:17:48;5.40;99.90
23597;DHT22;40226;50.874;4.394;2023-01-16T08:20:14;5.40;99.90
23597;DHT22;40226;50.874;4.394;2023-01-16T08:22:44;5.40;99.90
23597;DHT22;40226;50.874;4.394;2023-01-16T08:25:10;5.50;99.90
23597;DHT22;40226;50.874;4.394;2023-01-16T08:27:36;5.50;99.90
23597;DHT22;40226;50.874;4.394;2023-01-16T08:30:02;5.70;99.90
23597;DHT22;40226;50.874;4.394;2023-01-16T08:32:28;5.80;99.90
23597;DHT22;40226;50.874;4.394;2023-01-16T08:34:54;5.90;99.90
23597;DHT22;40226;50.874;4.394;2023-01-16T08:37:19;5.80;99.90
23597;DHT22;40226;50.874;4.394;2023-01-16T08:39:45;5.90;99.90
23597;DHT22;40226;50.874;4.394;2023-01-16T08:42:10;6.10;99.90
23597;DHT22;40226;50.874;4.394;2023-01-16T08:44:54;6.10;99.90
23597;DHT22;40226;50.874;4.394;2023-01-16T08:47:40;6.20;99.90
23597;DHT22;40226;50.874;4.394;2023-01-16T08:50:24;6.00;99.90
23597;DHT22;40226;50.874;4.394;2023-01-16T08:53:08;6.10;99.90
23597;DHT22;40226;50.874;4.394;2023-01-16T08:55:34;6.30;99.90
23597;DHT22;40226;50.874;4.394;2023-01-16T08:58:00;6.20;99.90
23597;DHT22;40226;50.874;4.394;2023-01-16T09:00:27;6.20;99.90
23597;DHT22;40226;50.874;4.394;2023-01-16T09:02:52;6.10;99.90
23597;DHT22;40226;50.874;4.394;2023-01-16T09:05:20;6.10;99.90
23597;DHT22;40226;50.874;4.394;2023-01-16T09:07:46;6.00;99.90
23597;DHT22;40226;50.874;4.394;2023-01-16T09:10:11;5.80;99.90
23597;DHT22;40226;50.874;4.394;2023-01-16T09:12:38;5.70;99.90
23597;DHT22;40226;50.874;4.394;2023-01-16T09:15:23;5.60;99.90
23597;DHT22;40226;50.874;4.394;2023-01-16T09:17:49;5.50;99.90
23597;DHT22;40226;50.874;4.394;2023-01-16T09:20:15;5.50;99.90
23597;DHT22;40226;50.874;4.394;2023-01-16T09:22:40;5.50;99.90
23597;DHT22;40226;50.874;4.394;2023-01-16T09:25:06;5.70;99.90
23597;DHT22;40226;50.874;4.394;2023-01-16T09:27:32;5.80;99.90
23597;DHT22;40226;50.874;4.394;2023-01-16T09:29:59;5.80;99.90
23597;DHT22;40226;50.874;4.394;2023-01-16T09:32:25;6.10;99.90
23597;DHT22;40226;50.874;4.394;2023-01-16T09:34:50;6.20;99.90
23597;DHT22;40226;50.874;4.394;2023-01-16T09:37:16;6.10;99.90
23597;DHT22;40226;50.874;4.394;2023-01-16T09:39:42;6.10;99.90
23597;DHT22;40226;50.874;4.394;2023-01-16T09:44:59;6.40;99.90
23597;DHT22;40226;50.874;4.394;2023-01-16T09:47:26;6.50;99.90
23597;DHT22;40226;50.874;4.394;2023-01-16T09:50:02;6.80;99.90
23597;DHT22;40226;50.874;4.394;2023-01-16T09:52:31;6.90;99.90
23597;DHT22;40226;50.874;4.394;2023-01-16T09:55:42;7.00;99.90
23597;DHT22;40226;50.874;4.394;2023-01-16T09:58:30;6.90;99.90
23597;DHT22;40226;50.874;4.394;2023-01-16T10:01:05;7.10;99.90
23597;DHT22;40226;50.874;4.394;2023-01-16T10:03:32;7.10;99.90
23597;DHT22;40226;50.874;4.394;2023-01-16T10:11:21;7.00;99.90
23597;DHT22;40226;50.874;4.394;2023-01-16T10:19:12;6.90;99.90
23597;DHT22;40226;50.874;4.394;2023-01-16T10:22:06;6.90;99.90
23597;DHT22;40226;50.874;4.394;2023-01-16T10:24:57;6.70;99.90
23597;DHT22;40226;50.874;4.394;2023-01-16T10:30:43;6.20;99.90
23597;DHT22;40226;50.874;4.394;2023-01-16T10:33:16;6.20;99.90
23597;DHT22;40226;50.874;4.394;2023-01-16T10:35:45;6.10;99.90
23597;DHT22;40226;50.874;4.394;2023-01-16T10:38:45;6.10;99.90
23597;DHT22;40226;50.874;4.394;2023-01-16T10:41:27;6.20;99.90
23597;DHT22;40226;50.874;4.394;2023-01-16T10:44:34;6.10;99.90
23597;DHT22;40226;50.874;4.394;2023-01-16T10:47:30;6.00;99.90
23597;DHT22;40226;50.874;4.394;2023-01-16T10:50:15;5.90;99.90
23597;DHT22;40226;50.874;4.394;2023-01-16T10:52:41;6.10;99.90
23597;DHT22;40226;50.874;4.394;2023-01-16T10:55:08;6.00;99.90
23597;DHT22;40226;50.874;4.394;2023-01-16T10:57:37;6.10;99.90
23597;DHT22;40226;50.874;4.394;2023-01-16T11:00:15;6.00;99.90
23597;DHT22;40226;50.874;4.394;2023-01-16T11:02:46;6.00;99.90
23597;DHT22;40226;50.874;4.394;2023-01-16T11:07:55;6.00;99.90
23597;DHT22;40226;50.874;4.394;2023-01-16T11:10:22;6.00;99.90
23597;DHT22;40226;50.874;4.394;2023-01-16T11:12:48;6.10;99.90
23597;DHT22;40226;50.874;4.394;2023-01-16T11:15:33;6.00;99.90
23597;DHT22;40226;50.874;4.394;2023-01-16T11:18:31;6.10;99.90
23597;DHT22;40226;50.874;4.394;2023-01-16T11:21:14;6.10;99.90
23597;DHT22;40226;50.874;4.394;2023-01-16T11:23:43;6.00;99.90
23597;DHT22;40226;50.874;4.394;2023-01-16T11:26:11;6.00;99.90
23597;DHT22;40226;50.874;4.394;2023-01-16T11:28:37;6.10;99.90
23597;DHT22;40226;50.874;4.394;2023-01-16T11:31:18;6.20;99.90
23597;DHT22;40226;50.874;4.394;2023-01-16T11:33:55;6.30;99.90
23597;DHT22;40226;50.874;4.394;2023-01-16T11:36:28;6.30;99.90
23597;DHT22;40226;50.874;4.394;2023-01-16T11:38:54;6.20;99.90
23597;DHT22;40226;50.874;4.394;2023-01-16T11:41:24;6.30;99.90
23597;DHT22;40226;50.874;4.394;2023-01-16T11:44:14;6.40;99.90
23597;DHT22;40226;50.874;4.394;2023-01-16T11:47:00;6.40;99.90
23597;DHT22;40226;50.874;4.394;2023-01-16T11:49:40;6.30;99.90
23597;DHT22;40226;50.874;4.394;2023-01-16T11:52:09;6.30;99.90
23597;DHT22;40226;50.874;4.394;2023-01-16T11:54:37;6.20;99.90
23597;DHT22;40226;50.874;4.394;2023-01-16T12:14:38;5.80;99.90
23597;DHT22;40226;50.874;4.394;2023-01-16T12:26:12;6.00;99.90
23597;DHT22;40226;50.874;4.394;2023-01-16T12:31:46;6.00;99.90
23597;DHT22;40226;50.874;4.394;2023-01-16T12:34:24;5.90;99.90
23597;DHT22;40226;50.874;4.394;2023-01-16T12:58:43;5.90;99.90
23597;DHT22;40226;50.874;4.394;2023-01-16T13:01:12;5.90;99.90
23597;DHT22;40226;50.874;4.394;2023-01-16T13:06:16;6.00;99.90
23597;DHT22;40226;50.874;4.394;2023-01-16T13:08:44;6.10;99.90
23597;DHT22;40226;50.874;4.394;2023-01-16T13:11:15;6.10;99.90
23597;DHT22;40226;50.874;4.394;2023-01-16T13:14:06;6.10;99.90
23597;DHT22;40226;50.874;4.394;2023-01-16T13:19:20;6.20;99.90
23597;DHT22;40226;50.874;4.394;2023-01-16T13:21:59;6.10;99.90
23597;DHT22;40226;50.874;4.394;2023-01-16T13:27:13;6.10;99.90
23597;DHT22;40226;50.874;4.394;2023-01-16T13:29:50;6.20;99.90
23597;DHT22;40226;50.874;4.394;2023-01-16T13:33:04;6.30;99.90
23597;DHT22;40226;50.874;4.394;2023-01-16T13:38:44;6.40;99.90
23597;DHT22;40226;50.874;4.394;2023-01-16T13:44:11;6.30;99.90
23597;DHT22;40226;50.874;4.394;2023-01-16T13:47:28;6.20;99.90
23597;DHT22;40226;50.874;4.394;2023-01-16T13:50:51;6.20;99.90
23597;DHT22;40226;50.874;4.394;2023-01-16T13:52:50;6.30;99.90
23597;DHT22;40226;50.874;4.394;2023-01-16T13:55:32;6.20;99.90
23597;DHT22;40226;50.874;4.394;2023-01-16T13:58:22;6.30;99.90
23597;DHT22;40226;50.874;4.394;2023-01-16T14:01:00;6.40;99.90
23597;DHT22;40226;50.874;4.394;2023-01-16T14:03:33;6.30;99.90
23597;DHT22;40226;50.874;4.394;2023-01-16T14:17:27;6.30;99.90
23597;DHT22;40226;50.874;4.394;2023-01-16T14:20:02;6.20;99.90
23597;DHT22;40226;50.874;4.394;2023-01-16T14:22:40;6.20;99.90
23597;DHT22;40226;50.874;4.394;2023-01-16T14:25:17;6.20;99.90
23597;DHT22;40226;50.874;4.394;2023-01-16T14:27:49;6.20;99.90
23597;DHT22;40226;50.874;4.394;2023-01-16T14:30:19;6.10;99.90
23597;DHT22;40226;50.874;4.394;2023-01-16T14:32:51;6.10;99.90
23597;DHT22;40226;50.874;4.394;2023-01-16T14:35:23;6.10;99.90
23597;DHT22;40226;50.874;4.394;2023-01-16T14:37:59;6.00;99.90
23597;DHT22;40226;50.874;4.394;2023-01-16T14:40:28;6.00;99.90
23597;DHT22;40226;50.874;4.394;2023-01-16T14:43:17;6.10;99.90
23597;DHT22;40226;50.874;4.394;2023-01-16T14:49:44;6.20;99.90
23597;DHT22;40226;50.874;4.394;2023-01-16T14:58:07;5.90;99.90
23597;DHT22;40226;50.874;4.394;2023-01-16T15:00:35;6.00;99.90
23597;DHT22;40226;50.874;4.394;2023-01-16T15:03:26;6.10;99.90
23597;DHT22;40226;50.874;4.394;2023-01-16T15:05:56;6.00;99.90
23597;DHT22;40226;50.874;4.394;2023-01-16T15:08:35;5.90;99.90
23597;DHT22;40226;50.874;4.394;2023-01-16T15:11:30;5.90;99.90
23597;DHT22;40226;50.874;4.394;2023-01-16T15:14:13;5.80;99.90
23597;DHT22;40226;50.874;4.394;2023-01-16T15:17:53;5.80;99.90
23597;DHT22;40226;50.874;4.394;2023-01-16T15:22:57;5.70;99.90
23597;DHT22;40226;50.874;4.394;2023-01-16T15:28:04;5.80;99.90
23597;DHT22;40226;50.874;4.394;2023-01-16T15:30:33;5.90;99.90
23597;DHT22;40226;50.874;4.394;2023-01-16T15:33:00;5.90;99.90
23597;DHT22;40226;50.874;4.394;2023-01-16T15:35:54;5.70;99.90
23597;DHT22;40226;50.874;4.394;2023-01-16T15:38:20;5.70;99.90
23597;DHT22;40226;50.874;4.394;2023-01-16T15:40:51;5.70;99.90
23597;DHT22;40226;50.874;4.394;2023-01-16T15:43:17;5.60;99.90
23597;DHT22;40226;50.874;4.394;2023-01-16T15:49:19;5.70;99.90
23597;DHT22;40226;50.874;4.394;2023-01-16T15:51:52;5.60;99.90
23597;DHT22;40226;50.874;4.394;2023-01-16T15:54:18;5.60;99.90
23597;DHT22;40226;50.874;4.394;2023-01-16T15:56:44;5.60;99.90
23597;DHT22;40226;50.874;4.394;2023-01-16T15:59:26;5.70;99.90
23597;DHT22;40226;50.874;4.394;2023-01-16T16:01:52;5.60;99.90
23597;DHT22;40226;50.874;4.394;2023-01-16T16:04:19;5.70;99.90
23597;DHT22;40226;50.874;4.394;2023-01-16T16:06:45;5.60;99.90
23597;DHT22;40226;50.874;4.394;2023-01-16T16:09:22;5.50;99.90
23597;DHT22;40226;50.874;4.394;2023-01-16T16:11:50;5.40;99.90
23597;DHT22;40226;50.874;4.394;2023-01-16T16:17:31;5.30;99.90
23597;DHT22;40226;50.874;4.394;2023-01-16T16:23:21;5.30;99.90
23597;DHT22;40226;50.874;4.394;2023-01-16T16:28:25;5.20;99.90
23597;DHT22;40226;50.874;4.394;2023-01-16T16:33:40;5.30;99.90
23597;DHT22;40226;50.874;4.394;2023-01-16T16:36:07;5.30;99.90
23597;DHT22;40226;50.874;4.394;2023-01-16T16:38:46;5.30;99.90
23597;DHT22;40226;50.874;4.394;2023-01-16T16:43:47;5.40;99.90
23597;DHT22;40226;50.874;4.394;2023-01-16T16:46:30;5.40;99.90
23597;DHT22;40226;50.874;4.394;2023-01-16T16:51:33;5.50;99.90
23597;DHT22;40226;50.874;4.394;2023-01-16T16:54:00;5.40;99.90
23597;DHT22;40226;50.874;4.394;2023-01-16T16:56:30;5.50;99.90
23597;DHT22;40226;50.874;4.394;2023-01-16T16:58:58;5.40;99.90
23597;DHT22;40226;50.874;4.394;2023-01-16T17:01:24;5.50;99.90
23597;DHT22;40226;50.874;4.394;2023-01-16T17:03:56;5.60;99.90
23597;DHT22;40226;50.874;4.394;2023-01-16T17:06:29;5.50;99.90
23597;DHT22;40226;50.874;4.394;2023-01-16T17:08:55;5.50;99.90
23597;DHT22;40226;50.874;4.394;2023-01-16T17:11:21;5.50;99.90
23597;DHT22;40226;50.874;4.394;2023-01-16T17:13:47;5.30;99.90
23597;DHT22;40226;50.874;4.394;2023-01-16T17:16:21;5.30;99.90
23597;DHT22;40226;50.874;4.394;2023-01-16T17:18:48;5.30;99.90
23597;DHT22;40226;50.874;4.394;2023-01-16T17:21:18;5.40;99.90
23597;DHT22;40226;50.874;4.394;2023-01-16T17:23:44;5.30;99.90
23597;DHT22;40226;50.874;4.394;2023-01-16T17:26:10;5.40;99.90
23597;DHT22;40226;50.874;4.394;2023-01-16T17:28:38;5.30;99.90
23597;DHT22;40226;50.874;4.394;2023-01-16T17:31:12;5.30;99.90
23597;DHT22;40226;50.874;4.394;2023-01-16T17:33:38;5.20;99.90
23597;DHT22;40226;50.874;4.394;2023-01-16T17:36:04;5.30;99.90
23597;DHT22;40226;50.874;4.394;2023-01-16T17:38:40;5.30;99.90
23597;DHT22;40226;50.874;4.394;2023-01-16T17:41:16;5.30;99.90
23597;DHT22;40226;50.874;4.394;2023-01-16T17:43:44;5.10;99.90
23597;DHT22;40226;50.874;4.394;2023-01-16T17:46:29;5.20;99.90
23597;DHT22;40226;50.874;4.394;2023-01-16T17:48:54;5.20;99.90
23597;DHT22;40226;50.874;4.394;2023-01-16T17:51:20;5.10;99.90
23597;DHT22;40226;50.874;4.394;2023-01-16T17:53:50;4.80;99.90
23597;DHT22;40226;50.874;4.394;2023-01-16T17:56:15;4.80;99.90
23597;DHT22;40226;50.874;4.394;2023-01-16T17:58:42;4.70;99.90
23597;DHT22;40226;50.874;4.394;2023-01-16T18:01:29;4.60;99.90
23597;DHT22;40226;50.874;4.394;2023-01-16T18:03:59;4.50;99.90
23597;DHT22;40226;50.874;4.394;2023-01-16T18:06:40;4.40;99.90
23597;DHT22;40226;50.874;4.394;2023-01-16T18:09:07;4.30;99.90
23597;DHT22;40226;50.874;4.394;2023-01-16T18:11:36;4.30;99.90
23597;DHT22;40226;50.874;4.394;2023-01-16T18:14:20;4.20;99.90
23597;DHT22;40226;50.874;4.394;2023-01-16T18:17:04;4.30;99.90
23597;DHT22;40226;50.874;4.394;2023-01-16T18:19:56;4.40;99.90
23597;DHT22;40226;50.874;4.394;2023-01-16T18:22:23;4.30;99.90
23597;DHT22;40226;50.874;4.394;2023-01-16T18:24:49;4.30;99.90
23597;DHT22;40226;50.874;4.394;2023-01-16T18:27:17;4.20;99.90
23597;DHT22;40226;50.874;4.394;2023-01-16T18:29:43;4.30;99.90
23597;DHT22;40226;50.874;4.394;2023-01-16T18:32:10;4.50;99.90
23597;DHT22;40226;50.874;4.394;2023-01-16T18:34:46;4.40;99.90
23597;DHT22;40226;50.874;4.394;2023-01-16T18:37:13;4.30;99.90
23597;DHT22;40226;50.874;4.394;2023-01-16T18:39:44;4.20;99.90
23597;DHT22;40226;50.874;4.394;2023-01-16T18:42:28;4.20;99.90
23597;DHT22;40226;50.874;4.394;2023-01-16T18:45:14;4.10;99.90
23597;DHT22;40226;50.874;4.394;2023-01-16T18:47:58;4.10;99.90
23597;DHT22;40226;50.874;4.394;2023-01-16T18:50:43;4.10;99.90
23597;DHT22;40226;50.874;4.394;2023-01-16T18:53:37;4.30;99.90
23597;DHT22;40226;50.874;4.394;2023-01-16T18:56:24;4.30;99.90
23597;DHT22;40226;50.874;4.394;2023-01-16T18:59:14;4.30;99.90
23597;DHT22;40226;50.874;4.394;2023-01-16T19:02:01;4.30;99.90